createdAt,value
2022-09-23T00:00:18.942Z,56.82
2022-09-23T00:03:21.597Z,57.14
2022-09-23T00:06:24.210Z,57.23
2022-09-23T00:09:25.756Z,57.58
2022-09-23T00:12:27.249Z,56.98
2022-09-23T00:15:31.023Z,57.97
2022-09-23T00:18:32.722Z,58.11
2022-09-23T00:21:34.120Z,57.14
2022-09-23T00:24:35.666Z,57.14
2022-09-23T00:27:38.538Z,56.73
2022-09-23T00:30:41.585Z,57.28
2022-09-23T00:33:43.485Z,57.19
2022-09-23T00:36:44.932Z,57.64
2022-09-23T00:39:47.005Z,58.29
2022-09-23T00:42:49.820Z,59.23
2022-09-23T00:45:51.300Z,57.82
2022-09-23T00:49:00.069Z,58.68
2022-09-23T00:52:09.851Z,58.42
2022-09-23T00:55:17.481Z,58.87
2022-09-23T00:58:26.824Z,59.67
2022-09-23T01:01:28.285Z,60.11
2022-09-23T01:04:30.496Z,58.56
2022-09-23T01:07:31.901Z,58.23
2022-09-23T01:10:50.873Z,59.79
2022-09-23T01:14:23.624Z,59.25
2022-09-23T01:17:40.535Z,58.31
2022-09-23T01:21:20.960Z,58.56
2022-09-23T01:24:34.696Z,58.88
2022-09-23T01:27:49.663Z,59.05
2022-09-23T01:31:12.350Z,60.07
2022-09-23T01:34:34.023Z,60.30
2022-09-23T01:37:47.020Z,59.71
2022-09-23T01:41:28.104Z,60.38
2022-09-23T01:44:52.808Z,60.19
2022-09-23T01:48:01.351Z,60.26
2022-09-23T01:51:13.981Z,60.55
2022-09-23T01:54:23.995Z,60.20
2022-09-23T01:57:40.807Z,58.73
2022-09-23T02:00:53.125Z,59.72
2022-09-23T02:04:06.038Z,60.33
2022-09-23T02:07:20.733Z,60.03
2022-09-23T02:10:28.179Z,59.31
2022-09-23T02:13:40.683Z,60.42
2022-09-23T02:16:49.993Z,60.48
2022-09-23T02:19:56.392Z,60.64
2022-09-23T02:23:07.601Z,60.75
2022-09-23T02:26:27.627Z,60.42
2022-09-23T02:29:37.366Z,59.61
2022-09-23T02:33:02.137Z,60.10
2022-09-23T02:36:14.895Z,60.87
2022-09-23T02:39:20.637Z,61.18
2022-09-23T02:42:28.587Z,60.64
2022-09-23T02:45:30.950Z,61.46
2022-09-23T02:48:47.848Z,61.71
2022-09-23T02:51:50.641Z,60.69
2022-09-23T02:54:52.500Z,60.89
2022-09-23T02:57:53.995Z,60.60
2022-09-23T03:01:15.765Z,61.21
2022-09-23T03:04:40.401Z,60.95
2022-09-23T03:08:09.252Z,60.31
2022-09-23T03:11:13.630Z,61.11
2022-09-23T03:14:26.375Z,61.26
2022-09-23T03:17:43.970Z,61.76
2022-09-23T03:20:51.113Z,60.82
2022-09-23T03:23:54.398Z,60.70
2022-09-23T03:26:55.957Z,61.19
2022-09-23T03:29:58.465Z,61.21
2022-09-23T03:33:00.899Z,61.23
2022-09-23T03:36:25.506Z,61.59
2022-09-23T03:39:40.175Z,61.78
2022-09-23T03:42:42.361Z,61.40
2022-09-23T03:45:46.440Z,61.40
2022-09-23T03:48:49.293Z,61.74
2022-09-23T03:51:50.834Z,61.26
2022-09-23T03:54:53.052Z,60.31
2022-09-23T03:57:55.534Z,61.02
2022-09-23T04:00:58.706Z,61.27
2022-09-23T04:04:00.434Z,61.16
2022-09-23T04:07:02.465Z,61.39
2022-09-23T04:10:07.184Z,61.36
2022-09-23T04:13:08.646Z,62.10
2022-09-23T04:16:10.174Z,61.87
2022-09-23T04:19:13.054Z,61.99
2022-09-23T04:22:14.678Z,61.89
2022-09-23T04:25:16.133Z,61.95
2022-09-23T04:28:17.550Z,61.57
2022-09-23T04:31:18.959Z,61.89
2022-09-23T04:34:20.653Z,61.68
2022-09-23T04:37:22.065Z,61.97
2022-09-23T04:40:23.532Z,61.83
2022-09-23T04:43:25.109Z,61.66
2022-09-23T04:46:26.665Z,60.98
2022-09-23T04:49:33.676Z,61.68
2022-09-23T04:52:35.097Z,61.35
2022-09-23T04:55:36.488Z,62.14
2022-09-23T04:58:39.807Z,62.41
2022-09-23T05:01:41.708Z,62.37
2022-09-23T05:04:43.273Z,61.72
2022-09-23T05:07:44.766Z,61.96
2022-09-23T05:10:46.437Z,62.00
2022-09-23T05:13:49.183Z,61.57
2022-09-23T05:16:50.708Z,61.32
2022-09-23T05:19:52.093Z,60.92
2022-09-23T05:22:56.122Z,62.24
2022-09-23T05:26:02.616Z,61.90
2022-09-23T05:29:04.362Z,61.79
2022-09-23T05:32:05.907Z,62.07
2022-09-23T05:35:07.932Z,61.61
2022-09-23T05:38:09.593Z,62.19
2022-09-23T05:41:13.913Z,61.37
2022-09-23T05:44:15.363Z,61.94
2022-09-23T05:47:16.785Z,61.62
2022-09-23T05:50:18.185Z,61.81
2022-09-23T05:53:19.728Z,61.64
2022-09-23T05:56:24.113Z,61.51
2022-09-23T05:59:25.916Z,60.96
2022-09-23T06:02:27.483Z,61.30
2022-09-23T06:05:30.957Z,61.92
2022-09-23T06:08:34.508Z,62.43
2022-09-23T06:11:36.969Z,62.90
2022-09-23T06:14:38.431Z,62.96
2022-09-23T06:17:39.961Z,63.25
2022-09-23T06:20:41.461Z,62.48
2022-09-23T06:23:44.171Z,62.73
2022-09-23T06:26:45.560Z,62.04
2022-09-23T06:29:47.006Z,62.95
2022-09-23T06:32:52.569Z,61.20
2022-09-23T06:35:59.852Z,59.96
2022-09-23T06:39:02.298Z,59.11
2022-09-23T06:42:06.670Z,58.19
2022-09-23T06:45:12.995Z,58.34
2022-09-23T06:48:14.438Z,57.55
2022-09-23T06:51:19.268Z,57.40
2022-09-23T06:54:20.680Z,57.01
2022-09-23T06:57:22.229Z,56.90
2022-09-23T07:00:24.396Z,56.29
2022-09-23T07:03:25.835Z,56.22
2022-09-23T07:06:27.281Z,56.37
2022-09-23T07:09:28.989Z,55.87
2022-09-23T07:12:30.424Z,56.27
2022-09-23T07:15:33.854Z,55.76
2022-09-23T07:18:37.536Z,56.17
2022-09-23T07:21:39.224Z,55.67
2022-09-23T07:24:40.620Z,55.49
2022-09-23T07:27:42.017Z,56.27
2022-09-23T07:30:56.036Z,55.86
2022-09-23T07:34:02.085Z,55.66
2022-09-23T07:37:04.129Z,55.92
2022-09-23T07:40:06.020Z,55.81
2022-09-23T07:43:09.584Z,54.69
2022-09-23T07:46:16.494Z,54.87
2022-09-23T07:49:18.016Z,55.18
2022-09-23T07:52:20.207Z,54.76
2022-09-23T07:55:21.610Z,54.27
2022-09-23T07:58:23.377Z,55.59
2022-09-23T08:01:24.813Z,54.72
2022-09-23T08:04:29.618Z,54.56
2022-09-23T08:07:34.310Z,54.04
2022-09-23T08:10:35.865Z,54.34
2022-09-23T08:13:37.496Z,53.90
2022-09-23T08:16:44.767Z,53.12
2022-09-23T08:19:46.191Z,53.36
2022-09-23T08:22:50.662Z,52.08
2022-09-23T08:26:03.970Z,52.17
2022-09-23T08:29:05.745Z,51.03
2022-09-23T08:32:07.123Z,51.01
2022-09-23T08:35:08.794Z,51.11
2022-09-23T08:38:10.342Z,50.31
2022-09-23T08:41:31.072Z,50.52
2022-09-23T08:44:45.798Z,51.64
2022-09-23T08:47:56.124Z,52.15
2022-09-23T08:51:12.602Z,51.28
2022-09-23T08:54:17.697Z,51.73
2022-09-23T08:57:37.546Z,50.64
2022-09-23T09:00:46.128Z,51.98
2022-09-23T09:03:56.335Z,51.00
2022-09-23T09:07:31.853Z,50.86
2022-09-23T09:10:39.159Z,50.59
2022-09-23T09:14:04.799Z,50.15
2022-09-23T09:17:10.180Z,47.92
2022-09-23T09:20:29.710Z,48.97
2022-09-23T09:23:55.453Z,48.72
2022-09-23T09:26:56.980Z,48.35
2022-09-23T09:30:01.280Z,47.64
2022-09-23T09:33:14.311Z,47.15
2022-09-23T09:36:30.842Z,45.88
2022-09-23T09:39:36.763Z,46.20
2022-09-23T09:42:42.634Z,47.80
2022-09-23T09:45:57.685Z,45.04
2022-09-23T09:49:07.561Z,43.98
2022-09-23T09:52:25.904Z,44.57
2022-09-23T09:55:28.498Z,42.91
2022-09-23T09:58:43.770Z,44.57
2022-09-23T10:01:46.172Z,43.30
2022-09-23T10:04:56.378Z,42.98
2022-09-23T10:08:32.095Z,42.35
2022-09-23T10:11:33.642Z,43.10
2022-09-23T10:14:36.265Z,41.75
2022-09-23T10:17:39.042Z,39.78
2022-09-23T10:20:40.525Z,39.09
2022-09-23T10:23:44.941Z,39.61
2022-09-23T10:26:55.761Z,39.65
2022-09-23T10:30:00.209Z,39.42
2022-09-23T10:33:02.042Z,39.57
2022-09-23T10:36:03.546Z,39.88
2022-09-23T10:39:44.531Z,38.60
2022-09-23T10:43:21.623Z,37.28
2022-09-23T10:46:38.385Z,39.17
2022-09-23T10:49:52.592Z,38.25
2022-09-23T10:53:03.415Z,38.38
2022-09-23T10:56:19.593Z,38.63
2022-09-23T10:59:41.102Z,40.16
2022-09-23T11:03:09.405Z,37.51
2022-09-23T11:06:37.203Z,37.47
2022-09-23T11:10:23.362Z,37.44
2022-09-23T11:13:42.598Z,38.03
2022-09-23T11:17:15.071Z,39.14
2022-09-23T11:20:38.686Z,38.56
2022-09-23T11:23:55.396Z,38.95
2022-09-23T11:27:32.000Z,38.44
2022-09-23T11:31:10.055Z,38.82
2022-09-23T11:34:17.549Z,40.54
2022-09-23T11:37:24.227Z,40.97
2022-09-23T11:40:38.822Z,40.39
2022-09-23T11:43:47.317Z,40.30
2022-09-23T11:46:55.632Z,40.01
2022-09-23T11:50:05.008Z,41.21
2022-09-23T11:53:23.674Z,41.42
2022-09-23T11:56:36.353Z,40.71
2022-09-23T12:03:29.686Z,41.04
2022-09-23T12:06:43.432Z,42.10
2022-09-23T12:10:06.784Z,42.05
2022-09-23T12:13:19.284Z,41.78
2022-09-23T12:16:33.777Z,40.24
2022-09-23T12:19:56.789Z,43.36
2022-09-23T12:23:14.698Z,40.93
2022-09-23T12:26:20.842Z,40.40
2022-09-23T12:29:25.475Z,40.19
2022-09-23T12:32:27.817Z,40.38
2022-09-23T12:35:39.982Z,40.42
2022-09-23T12:38:49.924Z,39.26
2022-09-23T12:42:00.405Z,42.37
2022-09-23T12:45:32.380Z,40.57
2022-09-23T12:48:46.257Z,39.32
2022-09-23T12:52:12.359Z,39.56
2022-09-23T12:55:23.275Z,39.76
2022-09-23T12:58:43.045Z,40.89
2022-09-23T13:01:44.859Z,42.52
2022-09-23T13:05:13.333Z,39.60
2022-09-23T13:08:18.709Z,40.34
2022-09-23T13:11:27.306Z,39.92
2022-09-23T13:14:32.684Z,38.96
2022-09-23T13:17:38.079Z,41.90
2022-09-23T13:20:40.722Z,39.61
2022-09-23T13:24:16.183Z,40.49
2022-09-23T13:27:21.934Z,40.41
2022-09-23T13:30:27.015Z,40.40
2022-09-23T13:33:31.105Z,43.46
2022-09-23T13:36:43.661Z,40.33
2022-09-23T13:39:45.108Z,39.76
2022-09-23T13:42:50.813Z,39.53
2022-09-23T13:45:52.350Z,42.78
2022-09-23T13:48:55.395Z,39.69
2022-09-23T13:51:57.412Z,40.04
2022-09-23T13:54:58.924Z,41.18
2022-09-23T13:58:03.223Z,40.87
2022-09-23T14:01:08.763Z,40.78
2022-09-23T14:04:24.287Z,41.38
2022-09-23T14:07:26.596Z,41.78
2022-09-23T14:10:28.264Z,41.91
2022-09-23T14:13:32.230Z,44.34
2022-09-23T14:16:38.175Z,42.89
2022-09-23T14:19:42.407Z,42.55
2022-09-23T14:22:44.342Z,41.67
2022-09-23T14:25:46.420Z,42.48
2022-09-23T14:28:48.389Z,42.18
2022-09-23T14:31:57.299Z,43.02
2022-09-23T14:35:05.348Z,43.13
2022-09-23T14:38:25.554Z,42.63
2022-09-23T14:41:27.019Z,44.56
2022-09-23T14:44:29.497Z,44.53
2022-09-23T14:47:33.416Z,44.12
2022-09-23T14:50:46.954Z,44.44
2022-09-23T14:53:48.962Z,42.88
2022-09-23T14:56:50.372Z,43.21
2022-09-23T14:59:59.870Z,42.57
2022-09-23T15:03:03.489Z,42.31
2022-09-23T15:06:09.259Z,43.68
2022-09-23T15:09:20.017Z,43.35
2022-09-23T15:12:22.145Z,44.44
2022-09-23T15:15:27.978Z,43.86
2022-09-23T15:18:33.919Z,44.73
2022-09-23T15:21:42.277Z,44.54
2022-09-23T15:24:45.575Z,44.64
2022-09-23T15:28:05.718Z,44.92
2022-09-23T15:31:09.119Z,44.99
2022-09-23T15:34:11.014Z,44.69
2022-09-23T15:37:12.645Z,45.71
2022-09-23T15:40:31.287Z,45.44
2022-09-23T15:43:32.705Z,45.75
2022-09-23T15:46:34.153Z,46.35
2022-09-23T15:49:38.932Z,46.07
2022-09-23T15:52:41.431Z,46.54
2022-09-23T15:55:42.955Z,46.13
2022-09-23T15:58:44.392Z,47.27
2022-09-23T16:01:46.019Z,47.13
2022-09-23T16:04:50.230Z,46.77
2022-09-23T16:07:52.470Z,47.40
2022-09-23T16:10:55.006Z,47.52
2022-09-23T16:13:56.618Z,47.69
2022-09-23T16:16:58.232Z,47.63
2022-09-23T16:19:59.737Z,47.70
2022-09-23T16:23:04.497Z,47.74
2022-09-23T16:26:11.139Z,48.04
2022-09-23T16:29:12.614Z,48.26
2022-09-23T16:32:15.334Z,48.82
2022-09-23T16:35:20.737Z,48.97
2022-09-23T16:38:22.171Z,48.83
2022-09-23T16:41:25.276Z,48.83
2022-09-23T16:44:26.697Z,48.58
2022-09-23T16:47:28.790Z,48.41
2022-09-23T16:50:32.003Z,48.87
2022-09-23T16:53:34.734Z,48.61
2022-09-23T16:56:44.894Z,49.18
2022-09-23T17:00:05.060Z,48.69
2022-09-23T17:03:24.805Z,48.65
2022-09-23T17:06:27.845Z,49.24
2022-09-23T17:09:30.132Z,51.16
2022-09-23T17:12:33.521Z,51.33
2022-09-23T17:15:39.512Z,51.13
2022-09-23T17:18:40.963Z,51.46
2022-09-23T17:21:42.635Z,52.29
2022-09-23T17:24:44.055Z,51.30
2022-09-23T17:27:47.845Z,52.36
2022-09-23T17:30:59.527Z,52.93
2022-09-23T17:34:01.053Z,52.09
2022-09-23T17:37:02.572Z,53.17
2022-09-23T17:40:05.035Z,53.29
2022-09-23T17:43:07.672Z,53.43
2022-09-23T17:46:12.788Z,53.65
2022-09-23T17:49:14.984Z,54.53
2022-09-23T17:52:19.661Z,54.43
2022-09-23T17:55:21.064Z,54.38
2022-09-23T17:58:31.423Z,54.64
2022-09-23T18:01:32.871Z,55.34
2022-09-23T18:04:34.333Z,55.19
2022-09-23T18:07:35.726Z,55.02
2022-09-23T18:10:37.128Z,55.20
2022-09-23T18:13:38.574Z,56.66
2022-09-23T18:16:42.172Z,57.24
2022-09-23T18:19:46.369Z,56.23
2022-09-23T18:22:47.779Z,57.12
2022-09-23T18:25:49.180Z,57.78
2022-09-23T18:29:01.560Z,56.85
2022-09-23T18:32:03.720Z,57.14
2022-09-23T18:35:05.849Z,57.21
2022-09-23T18:38:07.179Z,57.20
2022-09-23T18:41:09.237Z,57.50
2022-09-23T18:44:10.715Z,57.24
2022-09-23T18:47:32.148Z,57.89
2022-09-23T18:50:39.393Z,57.60
2022-09-23T18:53:43.766Z,58.07
2022-09-23T18:56:46.371Z,58.60
2022-09-23T18:59:47.813Z,57.77
2022-09-23T19:02:49.204Z,58.13
2022-09-23T19:05:51.298Z,58.61
2022-09-23T19:08:54.195Z,58.25
2022-09-23T19:11:55.808Z,58.29
2022-09-23T19:14:57.253Z,58.01
2022-09-23T19:17:58.667Z,56.52
2022-09-23T19:21:03.595Z,58.79
2022-09-23T19:24:08.147Z,58.89
2022-09-23T19:27:09.668Z,58.81
2022-09-23T19:30:12.020Z,57.59
2022-09-23T19:33:13.423Z,59.10
2022-09-23T19:36:15.110Z,57.37
2022-09-23T19:39:22.202Z,59.00
2022-09-23T19:42:27.046Z,59.35
2022-09-23T19:45:30.198Z,57.76
2022-09-23T19:48:31.622Z,58.11
2022-09-23T19:51:34.217Z,58.24
2022-09-23T19:54:35.765Z,57.46
2022-09-23T19:57:37.162Z,57.51
2022-09-23T20:00:38.647Z,58.08
2022-09-23T20:03:40.173Z,58.09
2022-09-23T20:06:41.736Z,57.56
2022-09-23T20:09:43.136Z,58.06
2022-09-23T20:12:44.524Z,59.41
2022-09-23T20:15:48.150Z,57.88
2022-09-23T20:18:52.143Z,58.05
2022-09-23T20:22:13.626Z,59.31
2022-09-23T20:25:15.214Z,60.06
2022-09-23T20:28:16.629Z,60.24
2022-09-23T20:31:20.834Z,58.93
2022-09-23T20:34:22.480Z,58.39
2022-09-23T20:37:24.715Z,59.73
2022-09-23T20:40:26.192Z,60.87
2022-09-23T20:43:28.122Z,60.18
2022-09-23T20:46:30.151Z,61.00
2022-09-23T20:49:34.027Z,60.85
2022-09-23T20:52:36.152Z,59.90
2022-09-23T20:55:37.467Z,60.45
2022-09-23T20:58:39.054Z,61.07
2022-09-23T21:01:41.263Z,60.19
2022-09-23T21:04:42.754Z,60.22
2022-09-23T21:07:46.953Z,59.75
2022-09-23T21:10:55.925Z,60.15
2022-09-23T21:14:02.465Z,59.74
2022-09-23T21:17:03.869Z,59.28
2022-09-23T21:20:05.887Z,60.05
2022-09-23T21:23:07.944Z,60.75
2022-09-23T21:26:12.078Z,60.18
2022-09-23T21:29:13.833Z,61.17
2022-09-23T21:32:15.228Z,62.16
2022-09-23T21:35:18.711Z,61.42
2022-09-23T21:38:20.139Z,62.35
2022-09-23T21:41:22.330Z,60.91
2022-09-23T21:44:23.741Z,60.27
2022-09-23T21:47:25.998Z,61.63
2022-09-23T21:50:29.970Z,60.65
2022-09-23T21:53:32.037Z,60.03
2022-09-23T21:56:35.286Z,60.17
2022-09-23T21:59:36.686Z,59.54
2022-09-23T22:02:40.035Z,59.60
2022-09-23T22:05:44.023Z,59.90
2022-09-23T22:08:45.867Z,59.12
2022-09-23T22:12:05.511Z,59.68
2022-09-23T22:15:07.130Z,61.60
2022-09-23T22:18:08.556Z,61.55
2022-09-23T22:21:09.935Z,61.67
2022-09-23T22:24:12.525Z,61.97
2022-09-23T22:27:16.436Z,60.68
2022-09-23T22:30:36.515Z,60.33
2022-09-23T22:33:37.845Z,59.96
2022-09-23T22:36:39.161Z,61.58
2022-09-23T22:39:40.560Z,61.81
2022-09-23T22:42:43.144Z,60.39
2022-09-23T22:45:51.526Z,60.78
2022-09-23T22:48:53.358Z,60.33
2022-09-23T22:51:54.667Z,60.35
2022-09-23T22:54:56.007Z,60.30
2022-09-23T22:57:57.391Z,60.13
2022-09-23T23:00:58.718Z,60.57
2022-09-23T23:04:03.148Z,60.60
2022-09-23T23:07:05.989Z,60.72
2022-09-23T23:10:10.363Z,60.69
2022-09-23T23:13:11.923Z,60.70
2022-09-23T23:16:13.360Z,62.54
2022-09-23T23:19:16.947Z,62.61
2022-09-23T23:22:18.558Z,61.34
2022-09-23T23:25:19.890Z,60.91
2022-09-23T23:28:21.233Z,60.57
2022-09-23T23:31:24.137Z,60.67
2022-09-23T23:34:25.702Z,62.08
2022-09-23T23:37:28.686Z,63.12
2022-09-23T23:40:30.032Z,63.35
2022-09-23T23:43:31.970Z,63.16
2022-09-23T23:46:33.523Z,62.71
2022-09-23T23:49:34.889Z,63.39
2022-09-23T23:52:36.242Z,63.65
2022-09-23T23:55:38.755Z,64.06
2022-09-23T23:58:40.177Z,64.11
